Avisos AEMET Campiña SevillanaSin Avisos+ INFO
Sevilla, Andalucía, España
Langue: fr English Français Deutsch Italiano Português Español
 

Nearby METAR Reports

 

LEZL - Sevilla, Spain
Distance from station: ENE 8km
Mise à jour: 07/02/2023 00:00
clair
clair
 Wind from varies
Vent: varies 4 km/h
Température: 10°C
Point de rosée: 10°C
Humidité: 100%
Baromètre: 1019 hPa
Résumé: clair
Visibility: greater than 10 km
2023/02/06 23:00 LEZL 062300Z VRB02KT CAVOK 10/10 Q1019 NOSIG
LEMO - Morón, Spain
Distance from station: SE 43km
Mise à jour: 07/02/2023 00:00
Few Clouds
Few Clouds
 Wind from SO
Vent: SO 7 km/h
Température: 7°C
Facteur Vent: 6°C
Point de rosée: 5°C
Humidité: 87%
Baromètre: 1019 hPa
Clouds: Few Clouds
Visibility: 10 km
Cloud details: Few Clouds 1158 m
2023/02/06 23:00 LEMO 062300Z 22004KT 9999 FEW038 07/05 Q1019 NOSIG
LEJR - Jeréz, Spain
Distance from station: S 71km
Mise à jour: 07/02/2023 00:00
clair
clair
 Wind from S
Vent: S 6 km/h
Température: 11°C
Point de rosée: 9°C
Humidité: 88%
Baromètre: 1019 hPa
Résumé: clair
Visibility: greater than 10 km
2023/02/06 23:00 LEJR 062300Z AUTO 17003KT 130V220 CAVOK 11/09 Q1019
 
LERT - Rota, Spain
Distance from station: SSO 89km
Mise à jour: 07/02/2023 00:00
Few Clouds
Few Clouds
 Wind from SSE
Vent: SSE 7 km/h
Température: 12°C
Point de rosée: 10°C
Humidité: 88%
Baromètre: 1019 hPa
Clouds: Few Clouds
Visibility: 10 km
Cloud details: Few Clouds 457 m
2023/02/06 23:00 LERT 062300Z 16004KT 140V200 9999 FEW015 12/10 Q1019 NOSIG
LEMG - Málaga, Spain
Distance from station: ESE 157km
Mise à jour: 07/02/2023 00:00
nuageux
nuageux
 Wind from SE
Vent: SE 17 km/h
Température: 14°C
Point de rosée: 8°C
Humidité: 67%
Baromètre: 1021 hPa
Clouds: nuageux
Visibility: 10 km
Cloud details: Few Clouds 671 m
nuageux 1067 m
2023/02/06 23:00 LEMG 062300Z 14009KT 110V170 9999 FEW022 BKN035 14/08 Q1021 NOSIG
LEBA - Córdoba, Spain
Distance from station: ENE 115km
Mise à jour: 07/02/2023 00:00
clair
clair
 Wind from ENE
Vent: ENE 9 km/h
Température: 9°C
Facteur Vent: 7°C
Point de rosée: 2°C
Humidité: 62%
Baromètre: 1020 hPa
Résumé: clair
Visibility: greater than 10 km
2023/02/06 23:00 LEBA 062300Z AUTO 07005KT CAVOK 09/02 Q1020
 
LEGR - Granada, Spain
Distance from station: E 198km
Mise à jour: 07/02/2023 00:00
couvert
couvert
 Wind from calm
Vent: calme
Température: 7°C
Point de rosée: 4°C
Humidité: 81%
Baromètre: 1020 hPa
Clouds: couvert
Visibility: 10 km
Cloud details: nuageux 1433 m
couvert 1524 m
2023/02/06 23:00 LEGR 062300Z AUTO 00000KT 9999 BKN047 OVC050 07/04 Q1020
LEAM - Almería, Spain
Distance from station: E 326km
Mise à jour: 07/02/2023 00:00
nuageux
nuageux
 Wind from NNE
Vent: NNE 19 km/h
Température: 12°C
Point de rosée: 6°C
Humidité: 67%
Baromètre: 1022 hPa
Clouds: nuageux
Visibility: 10 km
Cloud details: partiellement nuageux 1372 m
partiellement nuageux 1524 m
nuageux 2073 m
2023/02/06 23:00 LEAM 062300Z AUTO 03010KT 360V070 9999 SCT045 SCT050 BKN068 12/06 Q1022
LEMD - Madrid/Barajas, Spain
Distance from station: NNE 402km
Mise à jour: 07/02/2023 00:00
nuageux
nuageux
 Wind from NNO
Vent: NNO 6 km/h
Température: 4°C
Point de rosée: -2°C
Humidité: 65%
Baromètre: 1024 hPa
Clouds: nuageux
Visibility: 10 km
Cloud details: nuageux 2438 m
2023/02/06 23:00 LEMD 062300Z 33003KT 300V020 9999 BKN080 04/M02 Q1024 NOSIG
 
LEVD - Valladolid, Spain
Distance from station: N 492km
Mise à jour: 07/02/2023 00:00
clair
clair
 Wind from ENE
Vent: ENE 19 km/h
Température: 0°C
Facteur Vent: -5°C
Point de rosée: -3°C
Humidité: 80%
Baromètre: 1024 hPa
Résumé: clair
Visibility: greater than 10 km
2023/02/06 23:00 LEVD 062300Z AUTO 07010KT CAVOK M00/M03 Q1024
LEBL - Barcelona, Spain
Distance from station: NE 816km
Mise à jour: 07/02/2023 00:00
Few Clouds
Few Clouds
 Wind from NE
Vent: NE 24 km/h
Température: 10°C
Facteur Vent: 7°C
Point de rosée: -1°C
Humidité: 47%
Baromètre: 1025 hPa
Clouds: Few Clouds
Visibility: 10 km
Cloud details: Few Clouds 1524 m
2023/02/06 23:00 LEBL 062300Z 04013KT 9999 FEW050 10/M01 Q1025 NOSIG
LEVC - Valencia, Spain
Distance from station: ENE 535km
Mise à jour: 07/02/2023 00:00
nuageux
nuageux
 Wind from NNE
Vent: NNE 17 km/h
Température: 9°C
Facteur Vent: 7°C
Point de rosée: 5°C
Humidité: 76%
Baromètre: 1026 hPa
Clouds: nuageux
Visibility: 10 km
Cloud details: Few Clouds 975 m
nuageux 1219 m
2023/02/06 23:00 LEVC 062300Z 02009KT 350V050 9999 FEW032 BKN040 09/05 Q1026 NOSIG